createdAt,value
2023-04-27T00:01:43.954Z,7.60
2023-04-27T00:04:11.225Z,6.20
2023-04-27T00:06:38.388Z,6.90
2023-04-27T00:09:05.344Z,9.70
2023-04-27T00:11:32.448Z,9.43
2023-04-27T00:13:59.397Z,7.40
2023-04-27T00:16:26.826Z,6.67
2023-04-27T00:18:54.142Z,9.30
2023-04-27T00:21:21.156Z,10.80
2023-04-27T00:23:48.132Z,7.83
2023-04-27T00:26:15.147Z,8.50
2023-04-27T00:28:42.047Z,8.00
2023-04-27T00:31:09.184Z,11.30
2023-04-27T00:33:36.409Z,10.50
2023-04-27T00:36:03.387Z,11.50
2023-04-27T00:38:31.315Z,9.97
2023-04-27T00:41:05.931Z,12.33
2023-04-27T00:43:33.284Z,8.47
2023-04-27T00:46:01.058Z,9.20
2023-04-27T00:48:28.518Z,11.97
2023-04-27T00:50:55.633Z,10.10
2023-04-27T00:53:22.712Z,9.67
2023-04-27T00:55:49.715Z,9.87
2023-04-27T00:58:16.732Z,11.17
2023-04-27T01:00:44.126Z,12.50
2023-04-27T01:03:12.253Z,11.63
2023-04-27T01:05:39.755Z,10.83
2023-04-27T01:08:06.702Z,11.83
2023-04-27T01:10:33.725Z,11.27
2023-04-27T01:13:00.728Z,11.50
2023-04-27T01:15:27.863Z,8.73
2023-04-27T01:18:02.114Z,9.37
2023-04-27T01:20:30.525Z,11.93
2023-04-27T01:22:58.890Z,9.10
2023-04-27T01:25:26.510Z,8.10
2023-04-27T01:27:54.481Z,10.60
2023-04-27T01:30:22.779Z,8.23
2023-04-27T01:32:50.429Z,9.97
2023-04-27T01:35:17.602Z,12.00
2023-04-27T01:37:44.553Z,8.13
2023-04-27T01:40:12.218Z,9.13
2023-04-27T01:42:39.232Z,10.23
2023-04-27T01:45:07.427Z,8.93
2023-04-27T01:47:34.569Z,10.83
2023-04-27T01:50:01.772Z,10.07
2023-04-27T01:52:28.802Z,9.87
2023-04-27T01:54:55.874Z,8.47
2023-04-27T01:57:23.250Z,11.37
2023-04-27T01:59:50.242Z,9.53
2023-04-27T02:02:17.216Z,9.10
2023-04-27T02:04:45.254Z,11.70
2023-04-27T02:07:12.610Z,9.93
2023-04-27T02:09:39.606Z,10.33
2023-04-27T02:12:06.751Z,8.23
2023-04-27T02:14:33.704Z,11.63
2023-04-27T02:17:01.083Z,8.70
2023-04-27T02:19:28.075Z,12.20
2023-04-27T02:21:54.997Z,12.97
2023-04-27T02:24:21.957Z,8.43
2023-04-27T02:26:48.890Z,10.43
2023-04-27T02:29:16.989Z,9.00
2023-04-27T02:31:44.541Z,8.90
2023-04-27T02:34:11.546Z,10.07
2023-04-27T02:36:38.469Z,10.10
2023-04-27T02:39:05.810Z,10.07
2023-04-27T02:41:33.064Z,9.73
2023-04-27T02:44:00.053Z,11.50
2023-04-27T02:46:27.521Z,10.93
2023-04-27T02:48:55.531Z,11.83
2023-04-27T02:51:22.659Z,11.80
2023-04-27T02:53:50.629Z,11.57
2023-04-27T02:56:17.603Z,9.00
2023-04-27T02:58:44.997Z,13.53
2023-04-27T03:01:12.350Z,10.77
2023-04-27T03:03:39.464Z,9.27
2023-04-27T03:06:07.219Z,10.67
2023-04-27T03:08:34.215Z,9.37
2023-04-27T03:11:01.281Z,12.30
2023-04-27T03:13:28.419Z,10.90
2023-04-27T03:15:55.397Z,13.00
2023-04-27T03:18:22.409Z,12.20
2023-04-27T03:20:49.367Z,12.47
2023-04-27T03:23:16.381Z,11.07
2023-04-27T03:25:43.256Z,10.93
2023-04-27T03:28:11.338Z,11.67
2023-04-27T03:30:41.344Z,12.63
2023-04-27T03:33:08.341Z,9.97
2023-04-27T03:35:35.302Z,10.47
2023-04-27T03:38:02.276Z,11.27
2023-04-27T03:40:29.506Z,14.27
2023-04-27T03:42:57.956Z,13.57
2023-04-27T03:45:26.063Z,14.33
2023-04-27T03:47:53.069Z,10.83
2023-04-27T03:50:20.356Z,14.17
2023-04-27T03:52:47.331Z,11.03
2023-04-27T03:55:14.315Z,14.30
2023-04-27T03:57:41.674Z,11.97
2023-04-27T04:00:11.824Z,13.60
2023-04-27T04:02:39.501Z,11.67
2023-04-27T04:05:07.688Z,16.33
2023-04-27T04:07:35.215Z,11.50
2023-04-27T04:10:02.717Z,13.57
2023-04-27T04:12:29.744Z,11.30
2023-04-27T04:14:57.008Z,16.40
2023-04-27T04:17:24.181Z,11.40
2023-04-27T04:19:51.217Z,18.63
2023-04-27T04:22:18.235Z,12.27
2023-04-27T04:24:45.471Z,14.57
2023-04-27T04:27:12.367Z,13.70
2023-04-27T04:29:40.529Z,10.70
2023-04-27T04:32:09.578Z,14.17
2023-04-27T04:34:36.824Z,12.23
2023-04-27T04:37:04.695Z,11.93
2023-04-27T04:39:32.360Z,13.77
2023-04-27T04:41:59.450Z,14.27
2023-04-27T04:44:26.406Z,11.93
2023-04-27T04:46:53.744Z,12.73
2023-04-27T04:49:20.680Z,14.57
2023-04-27T04:51:47.650Z,12.77
2023-04-27T04:54:14.983Z,12.30
2023-04-27T04:56:41.888Z,11.23
2023-04-27T04:59:08.849Z,11.80
2023-04-27T05:01:36.639Z,15.10
2023-04-27T05:04:03.841Z,11.13
2023-04-27T05:06:31.925Z,15.57
2023-04-27T05:08:58.924Z,12.50
2023-04-27T05:11:26.051Z,12.40
2023-04-27T05:13:53.645Z,10.70
2023-04-27T05:16:20.630Z,11.53
2023-04-27T05:18:47.586Z,12.90
2023-04-27T05:21:16.100Z,10.40
2023-04-27T05:23:43.073Z,12.17
2023-04-27T05:26:18.272Z,13.97
2023-04-27T05:28:47.429Z,10.97
2023-04-27T05:31:14.420Z,12.43
2023-04-27T05:33:41.505Z,10.67
2023-04-27T05:36:09.329Z,10.57
2023-04-27T05:38:40.289Z,16.27
2023-04-27T05:41:07.663Z,13.50
2023-04-27T05:43:35.325Z,9.23
2023-04-27T05:46:02.316Z,13.17
2023-04-27T05:48:29.296Z,12.50
2023-04-27T05:51:03.642Z,10.53
2023-04-27T05:53:32.577Z,13.73
2023-04-27T05:56:07.344Z,11.53
2023-04-27T05:58:34.651Z,14.27
2023-04-27T06:01:02.819Z,11.43
2023-04-27T06:03:30.812Z,11.60
2023-04-27T06:05:59.295Z,9.53
2023-04-27T06:08:27.187Z,8.80
2023-04-27T06:10:54.692Z,13.20
2023-04-27T06:13:21.858Z,9.27
2023-04-27T06:15:48.922Z,13.23
2023-04-27T06:18:16.108Z,9.63
2023-04-27T06:20:43.172Z,12.77
2023-04-27T06:23:10.095Z,13.90
2023-04-27T06:25:38.933Z,15.27
2023-04-27T06:28:06.429Z,16.57
2023-04-27T06:30:33.393Z,21.13
2023-04-27T06:33:00.690Z,18.97
2023-04-27T06:35:27.724Z,18.43
2023-04-27T06:37:58.866Z,16.70
2023-04-27T06:40:27.023Z,20.27
2023-04-27T06:42:54.085Z,18.43
2023-04-27T06:45:21.107Z,21.43
2023-04-27T06:47:48.050Z,21.10
2023-04-27T06:50:16.510Z,24.63
2023-04-27T06:52:43.753Z,23.63
2023-04-27T06:55:10.864Z,20.17
2023-04-27T06:57:37.859Z,21.70
2023-04-27T07:00:05.514Z,36.43
2023-04-27T07:02:32.617Z,30.40
2023-04-27T07:04:59.706Z,36.07
2023-04-27T07:07:26.736Z,31.13
2023-04-27T07:09:54.081Z,28.53
2023-04-27T07:12:21.096Z,27.03
2023-04-27T07:14:50.781Z,26.50
2023-04-27T07:17:17.732Z,26.43
2023-04-27T07:19:44.763Z,25.20
2023-04-27T07:22:11.845Z,20.80
2023-04-27T07:24:38.899Z,21.53
2023-04-27T07:27:05.888Z,21.37
2023-04-27T07:29:32.974Z,20.67
2023-04-27T07:32:00.275Z,21.10
2023-04-27T07:34:29.272Z,23.57
2023-04-27T07:37:02.567Z,21.83
2023-04-27T07:39:29.609Z,24.57
2023-04-27T07:41:56.578Z,27.87
2023-04-27T07:44:23.473Z,28.43
2023-04-27T07:46:50.462Z,23.90
2023-04-27T07:49:17.441Z,22.50
2023-04-27T07:51:44.475Z,26.90
2023-04-27T07:54:11.484Z,23.30
2023-04-27T07:56:42.013Z,27.27
2023-04-27T07:59:09.129Z,28.03
2023-04-27T08:01:36.481Z,25.90
2023-04-27T08:04:04.406Z,27.20
2023-04-27T08:06:32.228Z,26.37
2023-04-27T08:09:00.921Z,25.53
2023-04-27T08:11:27.975Z,28.03
2023-04-27T08:13:55.236Z,28.37
2023-04-27T08:16:22.229Z,23.97
2023-04-27T08:18:50.784Z,24.03
2023-04-27T08:21:17.709Z,21.40
2023-04-27T08:23:44.864Z,22.67
2023-04-27T08:26:16.290Z,25.17
2023-04-27T08:28:43.266Z,23.47
2023-04-27T08:31:10.295Z,22.10
2023-04-27T08:33:37.294Z,29.70
2023-04-27T08:36:05.554Z,26.93
2023-04-27T08:38:36.005Z,26.63
2023-04-27T08:41:18.060Z,26.67
2023-04-27T08:43:49.923Z,29.17
2023-04-27T08:46:27.226Z,21.93
2023-04-27T08:48:54.995Z,24.93
2023-04-27T08:51:22.604Z,24.23
2023-04-27T08:53:51.567Z,23.90
2023-04-27T08:56:19.983Z,24.60
2023-04-27T08:58:46.933Z,24.97
2023-04-27T09:01:13.933Z,24.20
2023-04-27T09:03:41.276Z,24.97
2023-04-27T09:06:10.563Z,23.77
2023-04-27T09:08:48.433Z,26.47
2023-04-27T09:11:16.940Z,24.23
2023-04-27T09:13:45.534Z,23.83
2023-04-27T09:16:17.206Z,21.27
2023-04-27T09:18:44.544Z,20.20
2023-04-27T09:21:11.578Z,22.47
2023-04-27T09:23:42.179Z,26.00
2023-04-27T09:26:09.230Z,23.97
2023-04-27T09:28:39.553Z,21.73
2023-04-27T09:31:09.513Z,25.47
2023-04-27T09:33:36.956Z,19.30
2023-04-27T09:36:06.649Z,23.33
2023-04-27T09:38:34.331Z,22.17
2023-04-27T09:41:01.530Z,16.37
2023-04-27T09:43:29.994Z,14.80
2023-04-27T09:45:58.487Z,15.17
2023-04-27T09:48:26.915Z,12.40
2023-04-27T09:50:54.230Z,14.40
2023-04-27T09:53:30.829Z,12.67
2023-04-27T09:56:30.421Z,12.20
2023-04-27T09:59:22.370Z,10.67
2023-04-27T10:01:54.972Z,10.27
2023-04-27T10:04:55.574Z,11.13
2023-04-27T10:07:23.111Z,10.13
2023-04-27T10:09:54.180Z,9.43
2023-04-27T10:12:29.016Z,15.03
2023-04-27T10:14:57.973Z,12.40
2023-04-27T10:17:30.340Z,8.90
2023-04-27T10:19:58.793Z,8.53
2023-04-27T10:22:45.443Z,9.33
2023-04-27T10:25:21.812Z,8.73
2023-04-27T10:27:55.387Z,9.57
2023-04-27T10:30:32.637Z,12.60
2023-04-27T10:33:09.496Z,11.87
2023-04-27T10:35:41.164Z,15.53
2023-04-27T10:38:23.639Z,10.60
2023-04-27T10:41:05.523Z,8.33
2023-04-27T10:43:35.238Z,12.23
2023-04-27T10:46:28.839Z,11.77
2023-04-27T10:48:55.890Z,9.83
2023-04-27T10:51:25.066Z,18.33
2023-04-27T10:53:55.269Z,12.50
2023-04-27T10:56:23.758Z,10.13
2023-04-27T10:58:50.718Z,11.13
2023-04-27T11:01:27.843Z,9.67
2023-04-27T11:04:01.653Z,13.07
2023-04-27T11:06:30.440Z,10.23
2023-04-27T11:08:59.195Z,10.93
2023-04-27T11:11:27.350Z,12.30
2023-04-27T11:13:56.028Z,10.43
2023-04-27T11:16:23.544Z,9.03
2023-04-27T11:18:51.559Z,9.30
2023-04-27T11:21:20.650Z,10.10
2023-04-27T11:23:47.948Z,10.23
2023-04-27T11:26:16.211Z,8.60
2023-04-27T11:28:44.853Z,12.87
2023-04-27T11:31:12.136Z,9.73
2023-04-27T11:33:41.941Z,10.27
2023-04-27T11:36:19.965Z,10.13
2023-04-27T11:38:47.446Z,9.63
2023-04-27T11:41:15.860Z,11.97
2023-04-27T11:43:46.329Z,8.77
2023-04-27T11:46:13.480Z,9.93
2023-04-27T11:48:41.718Z,9.00
2023-04-27T11:51:11.283Z,9.20
2023-04-27T11:53:39.967Z,9.57
2023-04-27T11:56:10.663Z,9.47
2023-04-27T11:58:39.263Z,10.53
2023-04-27T12:01:07.781Z,8.87
2023-04-27T12:03:35.621Z,7.63
2023-04-27T12:08:32.725Z,9.87
2023-04-27T12:10:59.821Z,12.33
2023-04-27T12:13:27.360Z,9.23
2023-04-27T12:15:54.288Z,8.00
2023-04-27T12:18:21.283Z,11.73
2023-04-27T12:20:49.314Z,8.90
2023-04-27T12:23:16.630Z,9.23
2023-04-27T12:25:44.244Z,7.83
2023-04-27T12:28:12.425Z,7.93
2023-04-27T12:30:39.382Z,8.47
2023-04-27T12:33:11.059Z,8.13
2023-04-27T12:35:38.754Z,8.10
2023-04-27T12:38:05.780Z,10.20
2023-04-27T12:40:33.607Z,11.93
2023-04-27T12:43:01.499Z,8.03
2023-04-27T12:45:28.604Z,9.20
2023-04-27T12:48:03.552Z,9.20
2023-04-27T12:50:32.550Z,9.77
2023-04-27T12:53:00.367Z,9.40
2023-04-27T12:57:58.448Z,9.13
2023-04-27T13:00:26.517Z,10.03
2023-04-27T13:02:53.815Z,9.73
2023-04-27T13:05:22.213Z,8.83
2023-04-27T13:07:49.264Z,11.47
2023-04-27T13:10:16.399Z,9.03
2023-04-27T13:12:43.454Z,10.27
2023-04-27T13:15:10.850Z,10.30
2023-04-27T13:17:37.902Z,7.70
2023-04-27T13:20:06.618Z,9.10
2023-04-27T13:22:33.585Z,8.63
2023-04-27T13:25:00.977Z,9.53
2023-04-27T13:27:28.817Z,8.63
2023-04-27T13:29:56.148Z,10.40
2023-04-27T13:32:23.638Z,10.73
2023-04-27T13:34:50.832Z,9.33
2023-04-27T13:37:18.499Z,12.27
2023-04-27T13:39:45.744Z,8.70
2023-04-27T13:42:12.816Z,12.20
2023-04-27T13:44:39.749Z,13.83
2023-04-27T13:47:08.040Z,9.33
2023-04-27T13:49:35.216Z,9.50
2023-04-27T13:52:02.529Z,8.73
2023-04-27T13:54:29.547Z,9.57
2023-04-27T13:56:57.662Z,10.90
2023-04-27T13:59:25.735Z,11.47
2023-04-27T14:01:53.396Z,9.83
2023-04-27T14:04:20.656Z,9.70
2023-04-27T14:06:48.183Z,8.73
2023-04-27T14:09:16.191Z,11.07
2023-04-27T14:11:55.058Z,10.33
2023-04-27T14:14:24.216Z,9.33
2023-04-27T14:16:51.546Z,11.57
2023-04-27T14:19:20.887Z,10.07
2023-04-27T14:21:51.914Z,10.73
2023-04-27T14:24:19.152Z,9.67
2023-04-27T14:26:47.664Z,9.60
2023-04-27T14:29:15.493Z,8.57
2023-04-27T14:31:42.927Z,9.87
2023-04-27T14:34:10.116Z,10.07
2023-04-27T14:36:37.569Z,8.93
2023-04-27T14:39:06.994Z,8.83
2023-04-27T14:41:35.588Z,8.80
2023-04-27T14:44:02.820Z,9.43
2023-04-27T14:46:29.783Z,9.67
2023-04-27T14:48:56.815Z,9.67
2023-04-27T14:51:23.799Z,9.50
2023-04-27T14:53:50.756Z,9.47
2023-04-27T14:56:17.788Z,13.43
2023-04-27T14:58:44.756Z,9.83
2023-04-27T15:01:11.768Z,11.77
2023-04-27T15:03:38.947Z,9.67
2023-04-27T15:06:06.918Z,11.37
2023-04-27T15:08:34.462Z,9.43
2023-04-27T15:11:03.806Z,10.87
2023-04-27T15:13:30.941Z,12.30
2023-04-27T15:15:59.345Z,8.73
2023-04-27T15:18:26.439Z,9.33
2023-04-27T15:20:59.282Z,8.83
2023-04-27T15:23:27.387Z,9.37
2023-04-27T15:25:58.606Z,13.20
2023-04-27T15:28:25.591Z,9.30
2023-04-27T15:30:52.631Z,9.20
2023-04-27T15:33:19.714Z,10.87
2023-04-27T15:35:46.752Z,11.43
2023-04-27T15:38:15.130Z,9.33
2023-04-27T15:40:42.085Z,9.37
2023-04-27T15:43:10.059Z,9.47
2023-04-27T15:45:37.207Z,11.70
2023-04-27T15:48:04.359Z,9.23
2023-04-27T15:50:31.465Z,9.37
2023-04-27T15:52:59.520Z,9.50
2023-04-27T15:55:26.471Z,10.47
2023-04-27T15:57:53.928Z,9.97
2023-04-27T16:00:22.473Z,9.43
2023-04-27T16:02:49.895Z,9.40
2023-04-27T16:05:17.568Z,10.77
2023-04-27T16:07:46.070Z,10.00
2023-04-27T16:10:13.982Z,11.63
2023-04-27T16:12:41.283Z,10.77
2023-04-27T16:15:10.989Z,9.67
2023-04-27T16:17:38.914Z,10.17
2023-04-27T16:20:08.018Z,8.47
2023-04-27T16:22:36.198Z,11.30
2023-04-27T16:25:04.822Z,9.27
2023-04-27T16:27:31.796Z,11.67
2023-04-27T16:29:58.795Z,9.20
2023-04-27T16:32:26.852Z,10.00
2023-04-27T16:34:53.943Z,8.77
2023-04-27T16:37:20.889Z,12.17
2023-04-27T16:39:47.875Z,11.57
2023-04-27T16:42:20.002Z,10.40
2023-04-27T16:44:47.400Z,10.97
2023-04-27T16:47:14.532Z,9.67
2023-04-27T16:49:43.613Z,11.27
2023-04-27T16:52:11.349Z,9.67
2023-04-27T16:54:38.335Z,9.80
2023-04-27T16:57:05.384Z,11.17
2023-04-27T16:59:32.576Z,10.40
2023-04-27T17:02:09.401Z,9.50
2023-04-27T17:04:43.840Z,11.13
2023-04-27T17:07:10.917Z,11.20
2023-04-27T17:09:38.077Z,8.63
2023-04-27T17:12:10.976Z,9.27
2023-04-27T17:14:38.730Z,12.77
2023-04-27T17:17:06.715Z,9.73
2023-04-27T17:19:33.750Z,9.93
2023-04-27T17:22:00.878Z,15.33
2023-04-27T17:24:27.893Z,12.13
2023-04-27T17:26:54.880Z,13.33
2023-04-27T17:29:22.116Z,9.57
2023-04-27T17:31:50.466Z,9.37
2023-04-27T17:34:17.576Z,8.77
2023-04-27T17:36:44.561Z,10.37
2023-04-27T17:39:13.443Z,12.63
2023-04-27T17:41:40.956Z,12.00
2023-04-27T17:44:08.116Z,10.10
2023-04-27T17:46:35.221Z,9.77
2023-04-27T17:49:02.393Z,11.50
2023-04-27T17:51:29.351Z,9.83
2023-04-27T17:53:56.386Z,9.90
2023-04-27T17:56:24.347Z,11.67
2023-04-27T17:58:51.417Z,16.67
2023-04-27T18:01:18.554Z,11.87
2023-04-27T18:03:45.714Z,13.07
2023-04-27T18:06:12.789Z,17.50
2023-04-27T18:08:39.811Z,13.13
2023-04-27T18:11:07.875Z,10.00
2023-04-27T18:13:34.817Z,12.57
2023-04-27T18:16:01.865Z,14.90
2023-04-27T18:18:28.948Z,10.33
2023-04-27T18:20:55.868Z,8.60
2023-04-27T18:23:23.043Z,9.03
2023-04-27T18:25:50.380Z,9.20
2023-04-27T18:28:17.613Z,9.17
2023-04-27T18:30:44.557Z,11.57
2023-04-27T18:33:11.531Z,12.83
2023-04-27T18:35:38.569Z,9.80
2023-04-27T18:38:05.943Z,11.40
2023-04-27T18:40:33.704Z,11.23
2023-04-27T18:43:00.721Z,9.90
2023-04-27T18:45:27.830Z,13.07
2023-04-27T18:47:54.809Z,9.50
2023-04-27T18:50:21.930Z,8.77
2023-04-27T18:52:48.835Z,11.43
2023-04-27T18:55:16.975Z,9.70
2023-04-27T18:57:44.632Z,9.03
2023-04-27T19:00:13.381Z,9.83
2023-04-27T19:02:40.586Z,9.40
2023-04-27T19:05:13.005Z,9.33
2023-04-27T19:07:40.754Z,11.77
2023-04-27T19:10:08.414Z,10.57
2023-04-27T19:12:36.036Z,9.13
2023-04-27T19:15:03.369Z,9.17
2023-04-27T19:17:30.932Z,11.30
2023-04-27T19:19:58.616Z,9.03
2023-04-27T19:22:27.122Z,10.07
2023-04-27T19:24:54.237Z,9.23
2023-04-27T19:27:21.339Z,8.97
2023-04-27T19:29:58.665Z,8.20
2023-04-27T19:32:27.676Z,10.63
2023-04-27T19:34:56.421Z,8.57
2023-04-27T19:37:27.709Z,10.50
2023-04-27T19:39:54.919Z,8.80
2023-04-27T19:42:21.854Z,9.70
2023-04-27T19:44:48.811Z,9.10
2023-04-27T19:47:15.933Z,8.83
2023-04-27T19:49:43.618Z,10.30
2023-04-27T19:52:10.615Z,10.47
2023-04-27T19:54:38.362Z,10.73
2023-04-27T19:57:06.812Z,9.33
2023-04-27T19:59:33.860Z,8.53
2023-04-27T20:02:00.866Z,10.33
2023-04-27T20:04:28.954Z,10.87
2023-04-27T20:06:56.442Z,11.63
2023-04-27T20:09:23.342Z,9.17
2023-04-27T20:11:50.502Z,9.60
2023-04-27T20:14:17.944Z,9.67
2023-04-27T20:16:45.256Z,9.43
2023-04-27T20:19:12.798Z,11.23
2023-04-27T20:21:39.751Z,10.43
2023-04-27T20:24:07.326Z,9.33
2023-04-27T20:26:34.268Z,10.20
2023-04-27T20:29:01.369Z,11.60
2023-04-27T20:31:28.375Z,10.40
2023-04-27T20:33:55.447Z,10.73
2023-04-27T20:36:23.286Z,12.43
2023-04-27T20:38:50.482Z,12.37
2023-04-27T20:41:18.008Z,13.97
2023-04-27T20:43:45.640Z,10.93
2023-04-27T20:46:12.788Z,11.47
2023-04-27T20:48:39.885Z,14.83
2023-04-27T20:51:06.951Z,11.87
2023-04-27T20:53:33.908Z,14.77
2023-04-27T20:56:00.839Z,13.17
2023-04-27T20:58:27.946Z,12.60
2023-04-27T21:00:54.911Z,16.50
2023-04-27T21:03:22.145Z,12.23
2023-04-27T21:05:49.513Z,13.80
2023-04-27T21:08:17.030Z,15.40
2023-04-27T21:10:44.599Z,12.90
2023-04-27T21:13:11.946Z,13.83
2023-04-27T21:15:39.290Z,15.13
2023-04-27T21:18:09.269Z,13.80
2023-04-27T21:20:36.567Z,15.87
2023-04-27T21:23:03.656Z,13.83
2023-04-27T21:25:30.758Z,12.33
2023-04-27T21:27:57.734Z,12.33
2023-04-27T21:30:24.779Z,13.03
2023-04-27T21:32:51.745Z,12.17
2023-04-27T21:35:18.801Z,16.20
2023-04-27T21:37:45.687Z,17.83
2023-04-27T21:40:12.841Z,15.87
2023-04-27T21:42:39.795Z,15.27
2023-04-27T21:45:07.367Z,12.83
2023-04-27T21:47:34.352Z,13.33
2023-04-27T21:50:01.387Z,13.67
2023-04-27T21:52:28.291Z,13.63
2023-04-27T21:54:55.277Z,13.67
2023-04-27T21:57:22.213Z,12.37
2023-04-27T21:59:50.090Z,14.17
2023-04-27T22:02:17.141Z,15.27
2023-04-27T22:04:45.258Z,15.13
2023-04-27T22:07:12.347Z,17.10
2023-04-27T22:09:39.286Z,15.90
2023-04-27T22:12:06.695Z,13.67
2023-04-27T22:14:33.707Z,18.23
2023-04-27T22:17:01.092Z,14.83
2023-04-27T22:19:28.931Z,13.07
2023-04-27T22:21:56.614Z,15.97
2023-04-27T22:24:23.841Z,13.40
2023-04-27T22:26:50.966Z,14.03
2023-04-27T22:29:18.368Z,14.67
2023-04-27T22:31:45.670Z,13.67
2023-04-27T22:34:13.298Z,13.40
2023-04-27T22:36:40.676Z,15.77
2023-04-27T22:39:08.297Z,13.40
2023-04-27T22:41:35.301Z,14.60
2023-04-27T22:44:02.243Z,14.27
2023-04-27T22:46:29.235Z,14.63
2023-04-27T22:48:56.717Z,13.77
2023-04-27T22:51:27.320Z,14.33
2023-04-27T22:53:54.661Z,13.27
2023-04-27T22:56:22.678Z,16.37
2023-04-27T22:58:49.711Z,16.17
2023-04-27T23:01:17.080Z,17.60
2023-04-27T23:03:44.231Z,15.70
2023-04-27T23:06:14.571Z,17.67
2023-04-27T23:08:43.117Z,18.50
2023-04-27T23:11:14.210Z,13.93
2023-04-27T23:13:41.378Z,15.50
2023-04-27T23:16:09.732Z,17.90
2023-04-27T23:18:36.966Z,15.80
2023-04-27T23:21:04.122Z,17.20
2023-04-27T23:23:31.133Z,17.47
2023-04-27T23:25:58.121Z,17.63
2023-04-27T23:28:26.368Z,18.23
2023-04-27T23:30:54.723Z,16.20
2023-04-27T23:33:22.211Z,15.97
2023-04-27T23:35:49.179Z,19.27
2023-04-27T23:38:16.121Z,15.50
2023-04-27T23:40:43.454Z,18.33
2023-04-27T23:43:10.918Z,19.80
2023-04-27T23:45:37.831Z,18.17
2023-04-27T23:48:05.438Z,23.33
2023-04-27T23:50:32.808Z,18.30
2023-04-27T23:52:59.707Z,19.10
2023-04-27T23:55:26.675Z,15.67
2023-04-27T23:57:53.630Z,20.27
